createdAt,value
2023-01-27T00:00:50.964Z,1016.56
2023-01-27T00:01:50.964Z,1016.68
2023-01-27T00:02:50.949Z,1016.62
2023-01-27T00:03:50.951Z,1016.60
2023-01-27T00:04:50.890Z,1016.60
2023-01-27T00:06:02.953Z,1016.59
2023-01-27T00:06:51.047Z,1016.62
2023-01-27T00:09:53.366Z,1016.58
2023-01-27T00:10:53.370Z,1016.58
2023-01-27T00:11:53.146Z,1016.55
2023-01-27T00:12:53.306Z,1016.57
2023-01-27T00:15:35.200Z,1016.53
2023-01-27T00:16:34.967Z,1016.57
2023-01-27T00:17:50.769Z,1016.60
2023-01-27T00:18:35.260Z,1016.61
2023-01-27T00:19:35.214Z,1016.61
2023-01-27T00:20:35.012Z,1016.58
2023-01-27T00:21:35.274Z,1016.63
2023-01-27T00:22:34.885Z,1016.60
2023-01-27T00:23:34.843Z,1016.59
2023-01-27T00:24:51.730Z,1016.58
2023-01-27T00:25:35.197Z,1016.56
2023-01-27T00:28:45.876Z,1016.56
2023-01-27T00:31:28.967Z,1016.54
2023-01-27T00:32:29.119Z,1016.58
2023-01-27T00:33:28.737Z,1016.55
2023-01-27T00:34:28.517Z,1016.57
2023-01-27T00:35:28.693Z,1016.56
2023-01-27T00:39:23.077Z,1016.54
2023-01-27T00:40:22.779Z,1016.53
2023-01-27T00:41:22.668Z,1016.50
2023-01-27T00:42:22.713Z,1016.49
2023-01-27T00:43:23.095Z,1016.57
2023-01-27T00:44:22.484Z,1016.49
2023-01-27T00:45:22.562Z,1016.55
2023-01-27T00:46:34.667Z,1016.55
2023-01-27T00:47:22.563Z,1016.58
2023-01-27T00:48:22.423Z,1016.58
2023-01-27T00:49:22.668Z,1016.63
2023-01-27T00:50:22.380Z,1016.59
2023-01-27T00:51:22.368Z,1016.63
2023-01-27T00:52:22.390Z,1016.59
2023-01-27T00:53:22.378Z,1016.66
2023-01-27T00:54:22.363Z,1016.56
2023-01-27T00:55:22.372Z,1016.62
2023-01-27T00:56:22.415Z,1016.67
2023-01-27T00:57:22.363Z,1016.68
2023-01-27T00:58:22.357Z,1016.67
2023-01-27T00:59:22.388Z,1016.68
2023-01-27T01:00:23.123Z,1016.63
2023-01-27T01:01:22.335Z,1016.71
2023-01-27T01:02:22.318Z,1016.68
2023-01-27T01:03:22.311Z,1016.67
2023-01-27T01:04:22.386Z,1016.65
2023-01-27T01:05:22.454Z,1016.72
2023-01-27T01:06:22.329Z,1016.69
2023-01-27T01:07:22.348Z,1016.67
2023-01-27T01:08:22.301Z,1016.67
2023-01-27T01:09:22.325Z,1016.70
2023-01-27T01:10:22.312Z,1016.70
2023-01-27T01:11:22.329Z,1016.73
2023-01-27T01:12:23.128Z,1016.72
2023-01-27T01:13:22.329Z,1016.70
2023-01-27T01:14:22.336Z,1016.73
2023-01-27T01:15:23.137Z,1016.72
2023-01-27T01:16:22.385Z,1016.71
2023-01-27T01:17:22.320Z,1016.75
2023-01-27T01:18:22.279Z,1016.73
2023-01-27T01:19:22.318Z,1016.73
2023-01-27T01:20:22.231Z,1016.74
2023-01-27T01:21:22.283Z,1016.71
2023-01-27T01:22:22.302Z,1016.65
2023-01-27T01:23:22.354Z,1016.75
2023-01-27T01:24:22.445Z,1016.71
2023-01-27T01:25:30.729Z,1016.75
2023-01-27T01:26:22.178Z,1016.79
2023-01-27T01:27:22.188Z,1016.76
2023-01-27T01:28:22.186Z,1016.76
2023-01-27T01:29:22.174Z,1016.74
2023-01-27T01:30:22.204Z,1016.77
2023-01-27T01:31:22.172Z,1016.80
2023-01-27T01:32:22.154Z,1016.80
2023-01-27T01:33:22.148Z,1016.83
2023-01-27T01:34:22.166Z,1016.79
2023-01-27T01:35:22.131Z,1016.76
2023-01-27T01:36:22.120Z,1016.76
2023-01-27T01:37:22.130Z,1016.77
2023-01-27T01:38:22.111Z,1016.84
2023-01-27T01:39:22.115Z,1016.78
2023-01-27T01:40:24.640Z,1016.81
2023-01-27T01:41:22.092Z,1016.75
2023-01-27T01:42:22.150Z,1016.81
2023-01-27T01:43:22.082Z,1016.80
2023-01-27T01:44:22.086Z,1016.73
2023-01-27T01:45:22.096Z,1016.72
2023-01-27T01:46:22.136Z,1016.76
2023-01-27T01:47:22.060Z,1016.80
2023-01-27T01:48:22.078Z,1016.81
2023-01-27T01:49:22.076Z,1016.79
2023-01-27T01:50:22.059Z,1016.83
2023-01-27T01:51:22.054Z,1016.81
2023-01-27T01:52:22.048Z,1016.80
2023-01-27T01:53:22.049Z,1016.79
2023-01-27T01:54:22.039Z,1016.83
2023-01-27T01:55:22.050Z,1016.83
2023-01-27T01:56:22.036Z,1016.82
2023-01-27T01:57:23.284Z,1016.85
2023-01-27T01:58:22.015Z,1016.85
2023-01-27T01:59:22.032Z,1016.86
2023-01-27T02:00:22.026Z,1016.88
2023-01-27T02:01:22.020Z,1016.89
2023-01-27T02:02:22.705Z,1016.89
2023-01-27T02:03:21.985Z,1016.93
2023-01-27T02:04:21.979Z,1016.92
2023-01-27T02:05:22.256Z,1016.95
2023-01-27T02:06:21.985Z,1016.92
2023-01-27T02:07:22.039Z,1016.94
2023-01-27T02:08:21.969Z,1016.97
2023-01-27T02:09:21.991Z,1017.00
2023-01-27T02:10:21.967Z,1017.00
2023-01-27T02:11:21.979Z,1016.96
2023-01-27T02:12:21.958Z,1016.97
2023-01-27T02:13:21.974Z,1016.94
2023-01-27T02:14:21.949Z,1016.92
2023-01-27T02:15:21.924Z,1016.90
2023-01-27T02:16:22.013Z,1016.91
2023-01-27T02:17:21.927Z,1016.97
2023-01-27T02:18:21.970Z,1016.97
2023-01-27T02:19:21.930Z,1016.95
2023-01-27T02:20:21.916Z,1016.95
2023-01-27T02:21:21.921Z,1016.97
2023-01-27T02:22:21.916Z,1016.94
2023-01-27T02:23:21.906Z,1016.93
2023-01-27T02:24:21.915Z,1016.89
2023-01-27T02:25:21.884Z,1016.95
2023-01-27T02:26:21.926Z,1016.88
2023-01-27T02:27:21.900Z,1016.87
2023-01-27T02:28:21.878Z,1016.82
2023-01-27T02:29:21.864Z,1016.88
2023-01-27T02:30:21.872Z,1016.86
2023-01-27T02:31:21.930Z,1016.88
2023-01-27T02:32:21.880Z,1016.92
2023-01-27T02:33:21.839Z,1016.91
2023-01-27T02:34:21.840Z,1016.91
2023-01-27T02:35:21.830Z,1016.92
2023-01-27T02:36:21.827Z,1016.93
2023-01-27T02:37:21.829Z,1016.94
2023-01-27T02:38:21.831Z,1016.91
2023-01-27T02:39:21.853Z,1016.91
2023-01-27T02:40:21.813Z,1016.92
2023-01-27T02:41:21.798Z,1016.91
2023-01-27T02:42:21.799Z,1016.86
2023-01-27T02:43:21.787Z,1016.94
2023-01-27T02:44:21.780Z,1016.91
2023-01-27T02:45:21.803Z,1016.92
2023-01-27T02:46:21.853Z,1016.94
2023-01-27T02:47:21.793Z,1016.92
2023-01-27T02:48:21.770Z,1016.98
2023-01-27T02:49:21.771Z,1016.97
2023-01-27T02:50:21.763Z,1016.97
2023-01-27T02:51:21.770Z,1016.99
2023-01-27T02:52:21.757Z,1016.99
2023-01-27T02:53:21.749Z,1017.03
2023-01-27T02:54:21.740Z,1017.06
2023-01-27T02:55:21.749Z,1017.03
2023-01-27T02:56:21.738Z,1017.07
2023-01-27T02:57:21.730Z,1017.08
2023-01-27T02:58:21.728Z,1017.07
2023-01-27T02:59:21.743Z,1017.11
2023-01-27T03:00:21.738Z,1017.17
2023-01-27T03:01:21.754Z,1017.14
2023-01-27T03:02:21.726Z,1017.09
2023-01-27T03:03:21.690Z,1017.13
2023-01-27T03:04:21.692Z,1017.14
2023-01-27T03:05:21.692Z,1017.17
2023-01-27T03:06:21.712Z,1017.15
2023-01-27T03:07:21.681Z,1017.16
2023-01-27T03:08:21.697Z,1017.17
2023-01-27T03:09:21.670Z,1017.18
2023-01-27T03:10:21.654Z,1017.20
2023-01-27T03:11:21.675Z,1017.18
2023-01-27T03:12:21.662Z,1017.19
2023-01-27T03:13:21.646Z,1017.17
2023-01-27T03:14:21.645Z,1017.18
2023-01-27T03:15:21.637Z,1017.16
2023-01-27T03:16:21.631Z,1017.21
2023-01-27T03:17:21.655Z,1017.17
2023-01-27T03:18:21.623Z,1017.17
2023-01-27T03:19:21.621Z,1017.19
2023-01-27T03:20:21.622Z,1017.14
2023-01-27T03:21:21.645Z,1017.13
2023-01-27T03:22:21.619Z,1017.09
2023-01-27T03:23:21.603Z,1017.07
2023-01-27T03:24:21.628Z,1017.09
2023-01-27T03:25:21.598Z,1017.07
2023-01-27T03:26:21.590Z,1017.03
2023-01-27T03:27:21.602Z,1017.06
2023-01-27T03:28:21.573Z,1017.05
2023-01-27T03:29:21.577Z,1017.04
2023-01-27T03:30:21.565Z,1017.05
2023-01-27T03:31:21.687Z,1017.03
2023-01-27T03:32:21.568Z,1017.05
2023-01-27T03:33:21.585Z,1017.10
2023-01-27T03:34:21.544Z,1017.07
2023-01-27T03:35:21.537Z,1017.11
2023-01-27T03:36:21.531Z,1017.09
2023-01-27T03:37:21.552Z,1017.04
2023-01-27T03:38:21.526Z,1017.09
2023-01-27T03:39:21.545Z,1017.09
2023-01-27T03:40:21.508Z,1017.09
2023-01-27T03:41:21.513Z,1017.09
2023-01-27T03:42:21.515Z,1017.12
2023-01-27T03:43:21.515Z,1017.10
2023-01-27T03:44:21.502Z,1017.12
2023-01-27T03:45:21.518Z,1017.08
2023-01-27T03:46:21.500Z,1017.15
2023-01-27T03:47:21.490Z,1017.13
2023-01-27T03:48:21.483Z,1017.20
2023-01-27T03:49:21.468Z,1017.17
2023-01-27T03:50:21.465Z,1017.18
2023-01-27T03:51:21.486Z,1017.14
2023-01-27T03:52:21.455Z,1017.14
2023-01-27T03:53:21.499Z,1017.15
2023-01-27T03:54:21.448Z,1017.07
2023-01-27T03:55:21.441Z,1017.13
2023-01-27T03:56:21.456Z,1017.16
2023-01-27T03:57:21.428Z,1017.17
2023-01-27T03:58:21.433Z,1017.15
2023-01-27T03:59:21.420Z,1017.14
2023-01-27T04:00:21.431Z,1017.15
2023-01-27T04:01:21.672Z,1017.11
2023-01-27T04:02:21.539Z,1017.14
2023-01-27T04:03:21.413Z,1017.11
2023-01-27T04:04:21.443Z,1017.12
2023-01-27T04:05:21.400Z,1017.15
2023-01-27T04:06:21.391Z,1017.14
2023-01-27T04:07:21.403Z,1017.14
2023-01-27T04:08:21.376Z,1017.14
2023-01-27T04:09:21.418Z,1017.14
2023-01-27T04:10:21.382Z,1017.15
2023-01-27T04:11:21.368Z,1017.11
2023-01-27T04:12:21.375Z,1017.08
2023-01-27T04:13:21.378Z,1017.09
2023-01-27T04:14:21.363Z,1017.05
2023-01-27T04:15:21.357Z,1017.10
2023-01-27T04:16:21.342Z,1017.06
2023-01-27T04:17:21.355Z,1017.12
2023-01-27T04:18:21.339Z,1017.08
2023-01-27T04:19:21.346Z,1017.09
2023-01-27T04:20:21.332Z,1017.14
2023-01-27T04:21:21.326Z,1017.14
2023-01-27T04:22:21.347Z,1017.13
2023-01-27T04:23:21.319Z,1017.12
2023-01-27T04:24:21.341Z,1017.18
2023-01-27T04:25:21.297Z,1017.19
2023-01-27T04:26:21.297Z,1017.16
2023-01-27T04:27:21.300Z,1017.25
2023-01-27T04:28:37.308Z,1017.20
2023-01-27T04:29:21.299Z,1017.23
2023-01-27T04:30:21.273Z,1017.29
2023-01-27T04:31:21.305Z,1017.26
2023-01-27T04:32:21.272Z,1017.28
2023-01-27T04:33:21.271Z,1017.31
2023-01-27T04:34:21.280Z,1017.26
2023-01-27T04:35:23.341Z,1017.32
2023-01-27T04:36:21.239Z,1017.30
2023-01-27T04:37:21.241Z,1017.34
2023-01-27T04:38:21.253Z,1017.31
2023-01-27T04:39:21.257Z,1017.37
2023-01-27T04:40:21.220Z,1017.35
2023-01-27T04:41:21.222Z,1017.35
2023-01-27T04:42:29.288Z,1017.28
2023-01-27T04:43:21.208Z,1017.29
2023-01-27T04:44:21.253Z,1017.31
2023-01-27T04:45:21.200Z,1017.31
2023-01-27T04:46:21.196Z,1017.28
2023-01-27T04:47:21.189Z,1017.26
2023-01-27T04:48:21.201Z,1017.32
2023-01-27T04:49:21.195Z,1017.30
2023-01-27T04:50:21.194Z,1017.35
2023-01-27T04:51:21.183Z,1017.32
2023-01-27T04:52:21.171Z,1017.36
2023-01-27T04:53:21.164Z,1017.34
2023-01-27T04:54:21.191Z,1017.33
2023-01-27T04:55:21.176Z,1017.36
2023-01-27T04:56:42.170Z,1017.44
2023-01-27T04:57:21.135Z,1017.42
2023-01-27T04:58:21.145Z,1017.44
2023-01-27T04:59:21.148Z,1017.43
2023-01-27T05:00:21.139Z,1017.45
2023-01-27T05:01:21.133Z,1017.48
2023-01-27T05:02:21.140Z,1017.43
2023-01-27T05:03:21.125Z,1017.42
2023-01-27T05:04:21.135Z,1017.43
2023-01-27T05:05:21.148Z,1017.46
2023-01-27T05:06:21.106Z,1017.41
2023-01-27T05:07:21.102Z,1017.39
2023-01-27T05:08:21.095Z,1017.38
2023-01-27T05:09:21.116Z,1017.44
2023-01-27T05:10:21.098Z,1017.47
2023-01-27T05:11:21.119Z,1017.49
2023-01-27T05:12:21.078Z,1017.49
2023-01-27T05:13:21.061Z,1017.48
2023-01-27T05:14:21.075Z,1017.46
2023-01-27T05:15:22.005Z,1017.47
2023-01-27T05:16:21.114Z,1017.48
2023-01-27T05:17:21.063Z,1017.48
2023-01-27T05:18:21.050Z,1017.48
2023-01-27T05:19:21.070Z,1017.48
2023-01-27T05:20:21.048Z,1017.52
2023-01-27T05:21:21.038Z,1017.51
2023-01-27T05:22:21.048Z,1017.54
2023-01-27T05:23:21.041Z,1017.55
2023-01-27T05:24:21.062Z,1017.60
2023-01-27T05:25:21.012Z,1017.63
2023-01-27T05:26:21.014Z,1017.62
2023-01-27T05:27:21.016Z,1017.65
2023-01-27T05:28:21.003Z,1017.60
2023-01-27T05:29:21.016Z,1017.61
2023-01-27T05:30:20.997Z,1017.67
2023-01-27T05:31:21.182Z,1017.66
2023-01-27T05:32:20.974Z,1017.65
2023-01-27T05:33:20.970Z,1017.62
2023-01-27T05:34:21.376Z,1017.70
2023-01-27T05:35:20.976Z,1017.72
2023-01-27T05:36:20.983Z,1017.68
2023-01-27T05:37:20.964Z,1017.67
2023-01-27T05:38:20.944Z,1017.65
2023-01-27T05:39:20.960Z,1017.72
2023-01-27T05:40:20.948Z,1017.74
2023-01-27T05:41:20.949Z,1017.71
2023-01-27T05:42:20.941Z,1017.76
2023-01-27T05:43:20.923Z,1017.74
2023-01-27T05:44:20.947Z,1017.75
2023-01-27T05:45:20.918Z,1017.79
2023-01-27T05:46:20.945Z,1017.75
2023-01-27T05:47:20.917Z,1017.77
2023-01-27T05:48:20.910Z,1017.77
2023-01-27T05:49:20.918Z,1017.80
2023-01-27T05:50:20.901Z,1017.78
2023-01-27T05:51:20.894Z,1017.79
2023-01-27T05:52:20.892Z,1017.81
2023-01-27T05:53:20.880Z,1017.80
2023-01-27T05:54:20.892Z,1017.76
2023-01-27T05:55:20.901Z,1017.76
2023-01-27T05:56:20.874Z,1017.76
2023-01-27T05:57:20.878Z,1017.76
2023-01-27T05:58:20.850Z,1017.74
2023-01-27T05:59:20.858Z,1017.74
2023-01-27T06:00:20.868Z,1017.77
2023-01-27T06:01:20.865Z,1017.78
2023-01-27T06:02:22.769Z,1017.75
2023-01-27T06:03:20.855Z,1017.80
2023-01-27T06:04:20.838Z,1017.83
2023-01-27T06:05:20.843Z,1017.82
2023-01-27T06:06:20.832Z,1017.75
2023-01-27T06:07:20.820Z,1017.77
2023-01-27T06:08:20.815Z,1017.79
2023-01-27T06:09:20.816Z,1017.79
2023-01-27T06:10:21.003Z,1017.77
2023-01-27T06:11:20.827Z,1017.82
2023-01-27T06:12:20.804Z,1017.81
2023-01-27T06:13:20.800Z,1017.80
2023-01-27T06:14:20.782Z,1017.83
2023-01-27T06:15:20.785Z,1017.80
2023-01-27T06:16:20.824Z,1017.86
2023-01-27T06:17:20.763Z,1017.79
2023-01-27T06:18:20.769Z,1017.78
2023-01-27T06:19:20.768Z,1017.76
2023-01-27T06:20:20.756Z,1017.77
2023-01-27T06:21:20.803Z,1017.76
2023-01-27T06:22:20.757Z,1017.74
2023-01-27T06:23:20.750Z,1017.73
2023-01-27T06:24:20.771Z,1017.76
2023-01-27T06:25:20.727Z,1017.77
2023-01-27T06:26:20.727Z,1017.79
2023-01-27T06:27:20.790Z,1017.79
2023-01-27T06:28:28.737Z,1017.78
2023-01-27T06:29:20.733Z,1017.75
2023-01-27T06:30:20.702Z,1017.80
2023-01-27T06:31:21.023Z,1017.83
2023-01-27T06:32:20.708Z,1017.81
2023-01-27T06:33:20.704Z,1017.80
2023-01-27T06:34:20.696Z,1017.83
2023-01-27T06:35:20.686Z,1017.85
2023-01-27T06:36:20.712Z,1017.83
2023-01-27T06:37:20.687Z,1017.79
2023-01-27T06:38:20.704Z,1017.85
2023-01-27T06:39:20.689Z,1017.85
2023-01-27T06:40:20.678Z,1017.85
2023-01-27T06:41:20.657Z,1017.87
2023-01-27T06:42:20.654Z,1017.92
2023-01-27T06:43:20.650Z,1017.90
2023-01-27T06:44:20.652Z,1017.89
2023-01-27T06:45:20.648Z,1017.88
2023-01-27T06:46:20.659Z,1017.89
2023-01-27T06:47:20.641Z,1017.91
2023-01-27T06:48:20.632Z,1017.90
2023-01-27T06:49:20.643Z,1017.93
2023-01-27T06:50:20.618Z,1017.93
2023-01-27T06:51:20.628Z,1017.98
2023-01-27T06:52:20.610Z,1018.00
2023-01-27T06:53:20.607Z,1017.97
2023-01-27T06:54:20.605Z,1018.00
2023-01-27T06:55:20.607Z,1018.00
2023-01-27T06:56:20.603Z,1018.02
2023-01-27T06:57:20.577Z,1018.01
2023-01-27T06:58:20.580Z,1017.99
2023-01-27T06:59:20.615Z,1018.00
2023-01-27T07:00:20.578Z,1018.00
2023-01-27T07:01:20.594Z,1017.99
2023-01-27T07:02:20.588Z,1017.93
2023-01-27T07:03:20.569Z,1018.00
2023-01-27T07:04:20.566Z,1018.02
2023-01-27T07:05:20.547Z,1018.02
2023-01-27T07:06:20.551Z,1018.07
2023-01-27T07:07:20.547Z,1018.07
2023-01-27T07:08:20.544Z,1018.06
2023-01-27T07:09:20.545Z,1018.03
2023-01-27T07:10:20.535Z,1018.02
2023-01-27T07:11:20.523Z,1018.06
2023-01-27T07:12:20.536Z,1018.08
2023-01-27T07:13:21.252Z,1018.06
2023-01-27T07:14:20.528Z,1018.02
2023-01-27T07:15:20.513Z,1018.02
2023-01-27T07:16:20.531Z,1018.09
2023-01-27T07:17:20.508Z,1018.07
2023-01-27T07:18:20.506Z,1018.10
2023-01-27T07:21:08.400Z,1018.13
2023-01-27T07:21:20.486Z,1018.11
2023-01-27T07:22:20.478Z,1018.10
2023-01-27T07:23:20.480Z,1018.15
2023-01-27T07:24:20.537Z,1018.15
2023-01-27T07:25:20.446Z,1018.13
2023-01-27T07:26:25.077Z,1018.13
2023-01-27T07:27:20.453Z,1018.14
2023-01-27T07:28:21.792Z,1018.12
2023-01-27T07:29:20.433Z,1018.14
2023-01-27T07:30:20.438Z,1018.14
2023-01-27T07:31:20.651Z,1018.18
2023-01-27T07:32:21.947Z,1018.16
2023-01-27T07:33:20.596Z,1018.18
2023-01-27T07:34:20.430Z,1018.14
2023-01-27T07:35:20.415Z,1018.18
2023-01-27T07:36:20.434Z,1018.17
2023-01-27T07:37:20.425Z,1018.18
2023-01-27T07:38:20.404Z,1018.19
2023-01-27T07:39:20.420Z,1018.25
2023-01-27T07:40:20.415Z,1018.20
2023-01-27T07:41:20.386Z,1018.25
2023-01-27T07:42:20.394Z,1018.27
2023-01-27T07:43:20.395Z,1018.28
2023-01-27T07:44:20.382Z,1018.26
2023-01-27T07:45:20.353Z,1018.26
2023-01-27T07:46:20.368Z,1018.25
2023-01-27T07:47:20.372Z,1018.25
2023-01-27T07:48:20.364Z,1018.32
2023-01-27T07:49:20.349Z,1018.34
2023-01-27T07:50:20.361Z,1018.33
2023-01-27T07:51:20.343Z,1018.28
2023-01-27T07:52:20.339Z,1018.29
2023-01-27T07:53:20.379Z,1018.32
2023-01-27T07:54:20.321Z,1018.33
2023-01-27T07:55:20.328Z,1018.39
2023-01-27T07:56:20.344Z,1018.41
2023-01-27T07:57:20.310Z,1018.37
2023-01-27T07:58:22.799Z,1018.36
2023-01-27T07:59:20.320Z,1018.44
2023-01-27T08:00:20.330Z,1018.39
2023-01-27T08:01:20.349Z,1018.45
2023-01-27T08:02:20.340Z,1018.44
2023-01-27T08:03:20.332Z,1018.41
2023-01-27T08:04:20.330Z,1018.42
2023-01-27T08:05:20.297Z,1018.42
2023-01-27T08:06:20.264Z,1018.42
2023-01-27T08:07:20.280Z,1018.42
2023-01-27T08:08:20.290Z,1018.34
2023-01-27T08:09:20.264Z,1018.38
2023-01-27T08:10:20.281Z,1018.38
2023-01-27T08:11:20.248Z,1018.36
2023-01-27T08:12:20.245Z,1018.39
2023-01-27T08:13:20.304Z,1018.37
2023-01-27T08:14:20.289Z,1018.43
2023-01-27T08:15:20.231Z,1018.42
2023-01-27T08:16:20.273Z,1018.45
2023-01-27T08:17:20.223Z,1018.44
2023-01-27T08:18:20.229Z,1018.49
2023-01-27T08:19:20.234Z,1018.43
2023-01-27T08:20:20.217Z,1018.47
2023-01-27T08:21:20.229Z,1018.44
2023-01-27T08:22:20.200Z,1018.49
2023-01-27T08:23:20.218Z,1018.41
2023-01-27T08:24:20.249Z,1018.45
2023-01-27T08:25:20.199Z,1018.45
2023-01-27T08:26:20.208Z,1018.40
2023-01-27T08:27:20.189Z,1018.45
2023-01-27T08:28:20.187Z,1018.43
2023-01-27T08:29:20.195Z,1018.45
2023-01-27T08:30:20.264Z,1018.51
2023-01-27T08:31:20.235Z,1018.46
2023-01-27T08:32:20.203Z,1018.45
2023-01-27T08:33:20.191Z,1018.43
2023-01-27T08:34:20.158Z,1018.49
2023-01-27T08:35:20.153Z,1018.54
2023-01-27T08:36:20.169Z,1018.50
2023-01-27T08:37:20.171Z,1018.53
2023-01-27T08:38:20.141Z,1018.53
2023-01-27T08:39:20.168Z,1018.53
2023-01-27T08:40:20.169Z,1018.51
2023-01-27T08:41:20.181Z,1018.55
2023-01-27T08:42:20.126Z,1018.60
2023-01-27T08:43:20.243Z,1018.61
2023-01-27T08:44:20.808Z,1018.59
2023-01-27T08:45:20.154Z,1018.62
2023-01-27T08:46:21.456Z,1018.61
2023-01-27T08:47:21.361Z,1018.63
2023-01-27T08:48:20.805Z,1018.55
2023-01-27T08:49:21.310Z,1018.63
2023-01-27T08:50:20.825Z,1018.69
2023-01-27T08:51:23.313Z,1018.65
2023-01-27T08:52:20.102Z,1018.67
2023-01-27T08:53:20.071Z,1018.67
2023-01-27T08:54:20.082Z,1018.65
2023-01-27T08:55:20.073Z,1018.69
2023-01-27T08:56:20.052Z,1018.71
2023-01-27T08:57:20.087Z,1018.72
2023-01-27T08:58:20.079Z,1018.64
2023-01-27T08:59:20.052Z,1018.71
2023-01-27T09:00:20.047Z,1018.68
2023-01-27T09:01:20.103Z,1018.70
2023-01-27T09:02:20.022Z,1018.76
2023-01-27T09:03:20.039Z,1018.75
2023-01-27T09:04:20.061Z,1018.81
2023-01-27T09:05:20.042Z,1018.71
2023-01-27T09:06:20.042Z,1018.76
2023-01-27T09:07:20.020Z,1018.77
2023-01-27T09:08:19.997Z,1018.72
2023-01-27T09:09:20.007Z,1018.78
2023-01-27T09:10:25.935Z,1018.79
2023-01-27T09:11:21.173Z,1018.75
2023-01-27T09:12:22.315Z,1018.76
2023-01-27T09:13:20.297Z,1018.76
2023-01-27T09:14:26.315Z,1018.78
2023-01-27T09:15:21.825Z,1018.79
2023-01-27T09:16:25.335Z,1018.83
2023-01-27T09:17:21.361Z,1018.81
2023-01-27T09:18:21.565Z,1018.82
2023-01-27T09:19:20.814Z,1018.80
2023-01-27T09:20:19.963Z,1018.82
2023-01-27T09:21:19.975Z,1018.77
2023-01-27T09:22:19.953Z,1018.84
2023-01-27T09:23:19.950Z,1018.83
2023-01-27T09:24:19.952Z,1018.85
2023-01-27T09:25:21.823Z,1018.82
2023-01-27T09:26:19.972Z,1018.82
2023-01-27T09:27:30.094Z,1018.94
2023-01-27T09:28:19.912Z,1018.89
2023-01-27T09:29:19.910Z,1018.90
2023-01-27T09:30:19.921Z,1018.93
2023-01-27T09:31:20.118Z,1018.99
2023-01-27T09:32:19.933Z,1018.87
2023-01-27T09:33:19.967Z,1018.94
2023-01-27T09:34:19.983Z,1018.96
2023-01-27T09:35:19.993Z,1018.98
2023-01-27T09:36:19.955Z,1018.97
2023-01-27T09:37:19.913Z,1019.05
2023-01-27T09:38:19.905Z,1019.03
2023-01-27T09:39:19.943Z,1019.03
2023-01-27T09:40:19.919Z,1019.05
2023-01-27T09:41:19.890Z,1018.98
2023-01-27T09:42:19.886Z,1019.02
2023-01-27T09:43:21.333Z,1019.03
2023-01-27T09:44:19.872Z,1019.04
2023-01-27T09:45:19.864Z,1019.06
2023-01-27T09:46:19.919Z,1019.04
2023-01-27T09:47:19.847Z,1019.09
2023-01-27T09:48:19.856Z,1019.06
2023-01-27T09:49:21.646Z,1019.07
2023-01-27T09:50:22.322Z,1019.04
2023-01-27T09:51:21.359Z,1019.13
2023-01-27T09:52:19.874Z,1019.13
2023-01-27T09:53:21.822Z,1019.12
2023-01-27T09:54:22.830Z,1019.11
2023-01-27T09:55:19.946Z,1019.12
2023-01-27T09:56:21.337Z,1019.11
2023-01-27T09:57:21.437Z,1019.09
2023-01-27T09:58:19.866Z,1019.11
2023-01-27T09:59:21.859Z,1019.07
2023-01-27T10:00:21.341Z,1019.10
2023-01-27T10:01:19.954Z,1019.09
2023-01-27T10:02:20.332Z,1019.11
2023-01-27T10:03:19.804Z,1019.10
2023-01-27T10:04:22.533Z,1019.11
2023-01-27T10:05:34.563Z,1019.06
2023-01-27T10:06:20.335Z,1019.09
2023-01-27T10:07:35.576Z,1019.09
2023-01-27T10:08:20.895Z,1019.12
2023-01-27T10:09:27.345Z,1019.10
2023-01-27T10:58:34.511Z,1019.14
2023-01-27T11:09:12.170Z,1019.15
2023-01-27T11:10:04.138Z,1019.16
2023-01-27T11:11:26.950Z,1019.09
2023-01-27T11:12:08.751Z,1019.10
2023-01-27T11:13:04.786Z,1019.14
2023-01-27T11:15:43.090Z,1019.19
2023-01-27T11:16:43.271Z,1019.15
2023-01-27T11:17:43.612Z,1019.23
2023-01-27T11:18:43.010Z,1019.15
2023-01-27T11:20:14.891Z,1019.19
2023-01-27T11:20:43.015Z,1019.16
2023-01-27T11:21:43.082Z,1019.15
2023-01-27T11:22:43.095Z,1019.17
2023-01-27T11:23:43.029Z,1019.22
2023-01-27T11:24:43.256Z,1019.21
2023-01-27T11:25:45.683Z,1019.16
2023-01-27T11:26:43.895Z,1019.20
2023-01-27T11:27:42.988Z,1019.19
2023-01-27T11:28:42.968Z,1019.19
2023-01-27T11:29:43.050Z,1019.17
2023-01-27T11:30:45.787Z,1019.24
2023-01-27T11:32:51.234Z,1019.12
2023-01-27T11:33:42.942Z,1019.17
2023-01-27T11:34:46.664Z,1019.18
2023-01-27T11:35:42.977Z,1019.23
2023-01-27T11:36:42.980Z,1019.23
2023-01-27T11:37:49.778Z,1019.14
2023-01-27T11:38:42.968Z,1019.18
2023-01-27T11:39:43.071Z,1019.15
2023-01-27T11:44:04.493Z,1019.13
2023-01-27T11:44:24.477Z,1019.12
2023-01-27T11:45:24.474Z,1019.11
2023-01-27T11:47:24.473Z,1019.16
2023-01-27T11:48:24.419Z,1019.15
2023-01-27T11:49:24.378Z,1019.13
2023-01-27T11:50:25.135Z,1019.17
2023-01-27T11:51:24.377Z,1019.15
2023-01-27T11:52:24.387Z,1019.13
2023-01-27T11:53:25.019Z,1019.10
2023-01-27T11:54:24.392Z,1019.17
2023-01-27T11:55:24.374Z,1019.18
2023-01-27T11:56:24.395Z,1019.11
2023-01-27T11:57:24.411Z,1019.11
2023-01-27T11:58:24.382Z,1019.14
2023-01-27T11:59:24.443Z,1019.08
2023-01-27T12:00:24.375Z,1019.12
2023-01-27T12:01:24.416Z,1019.10
2023-01-27T14:25:06.954Z,1019.60
2023-01-27T14:26:05.360Z,1019.56
2023-01-27T14:27:21.275Z,1019.59
2023-01-27T14:28:08.316Z,1019.61
2023-01-27T14:29:05.351Z,1019.61
2023-01-27T14:30:05.326Z,1019.61
2023-01-27T14:31:05.384Z,1019.64
2023-01-27T14:32:05.380Z,1019.63
2023-01-27T14:33:05.285Z,1019.60
2023-01-27T14:34:05.397Z,1019.60
2023-01-27T14:35:05.299Z,1019.62
2023-01-27T14:36:05.306Z,1019.58
2023-01-27T14:37:05.345Z,1019.65
2023-01-27T14:38:05.418Z,1019.62
2023-01-27T14:39:05.441Z,1019.62
2023-01-27T14:40:05.268Z,1019.66
2023-01-27T14:41:05.234Z,1019.66
2023-01-27T14:42:05.358Z,1019.65
2023-01-27T14:51:56.303Z,1019.69
2023-01-27T14:52:56.782Z,1019.70
2023-01-27T14:54:37.132Z,1019.70
2023-01-27T14:55:35.566Z,1019.71
2023-01-27T14:56:34.279Z,1019.70
2023-01-27T14:57:35.300Z,1019.73
2023-01-27T14:58:34.649Z,1019.67
2023-01-27T15:00:34.300Z,1019.75
2023-01-27T15:01:34.626Z,1019.73
2023-01-27T15:02:39.808Z,1019.76
2023-01-27T15:07:25.234Z,1019.74
2023-01-27T15:08:25.768Z,1019.77
2023-01-27T15:09:25.337Z,1019.76
2023-01-27T15:10:25.892Z,1019.78
2023-01-27T15:15:57.170Z,1019.82
2023-01-27T15:16:57.126Z,1019.83
2023-01-27T15:17:55.939Z,1019.82
2023-01-27T15:18:56.027Z,1019.83
2023-01-27T15:19:57.129Z,1019.83
2023-01-27T15:21:58.986Z,1019.86
2023-01-27T15:22:57.648Z,1019.89
2023-01-27T15:23:56.922Z,1019.82
2023-01-27T15:24:55.929Z,1019.80
2023-01-27T15:26:57.151Z,1019.88
2023-01-27T15:27:57.300Z,1019.87
2023-01-27T15:28:58.627Z,1019.89
2023-01-27T15:29:57.656Z,1019.83
2023-01-27T15:42:48.163Z,1020.13
2023-01-27T15:47:30.538Z,1020.09
2023-01-27T15:50:56.903Z,1020.18
2023-01-27T16:01:23.764Z,1020.34
2023-01-27T16:05:16.094Z,1020.30
2023-01-27T16:06:05.336Z,1020.31
2023-01-27T16:10:27.193Z,1020.40
2023-01-27T16:16:21.473Z,1020.37
2023-01-27T16:20:17.581Z,1020.37
2023-01-27T16:21:16.862Z,1020.33
2023-01-27T16:22:17.490Z,1020.42
2023-01-27T16:23:17.498Z,1020.43
2023-01-27T16:24:16.899Z,1020.42
2023-01-27T16:25:16.774Z,1020.47
2023-01-27T16:26:16.755Z,1020.42
2023-01-27T16:27:17.478Z,1020.42
2023-01-27T16:28:17.570Z,1020.43
2023-01-27T16:29:16.707Z,1020.45
2023-01-27T16:30:16.731Z,1020.43
2023-01-27T16:31:16.734Z,1020.46
2023-01-27T16:32:16.711Z,1020.46
2023-01-27T16:33:16.723Z,1020.49
2023-01-27T16:34:16.703Z,1020.43
2023-01-27T16:35:16.701Z,1020.47
2023-01-27T16:36:16.708Z,1020.45
2023-01-27T16:37:16.692Z,1020.47
2023-01-27T16:38:16.680Z,1020.49
2023-01-27T16:39:16.681Z,1020.48
2023-01-27T16:40:16.673Z,1020.49
2023-01-27T16:41:16.688Z,1020.50
2023-01-27T16:42:16.670Z,1020.51
2023-01-27T16:43:16.695Z,1020.56
2023-01-27T16:44:16.672Z,1020.58
2023-01-27T16:45:16.945Z,1020.58
2023-01-27T16:46:16.694Z,1020.59